sensor_id;sensor_type;location;lat;lon;timestamp;temperature;humidity
921;DHT22;447;51.332;6.778;2023-06-04T00:00:16;23.60;48.10
921;DHT22;447;51.332;6.778;2023-06-04T00:02:42;23.50;48.20
921;DHT22;447;51.332;6.778;2023-06-04T00:05:08;23.50;48.30
921;DHT22;447;51.332;6.778;2023-06-04T00:07:34;23.50;48.30
921;DHT22;447;51.332;6.778;2023-06-04T00:10:04;23.50;48.40
921;DHT22;447;51.332;6.778;2023-06-04T00:12:30;23.50;48.30
921;DHT22;447;51.332;6.778;2023-06-04T00:14:56;23.40;48.40
921;DHT22;447;51.332;6.778;2023-06-04T00:17:25;23.40;48.50
921;DHT22;447;51.332;6.778;2023-06-04T00:19:51;23.40;48.50
921;DHT22;447;51.332;6.778;2023-06-04T00:22:22;23.40;48.60
921;DHT22;447;51.332;6.778;2023-06-04T00:24:49;23.40;48.50
921;DHT22;447;51.332;6.778;2023-06-04T00:27:15;23.30;48.50
921;DHT22;447;51.332;6.778;2023-06-04T00:29:41;23.30;48.70
921;DHT22;447;51.332;6.778;2023-06-04T00:32:09;23.30;48.70
921;DHT22;447;51.332;6.778;2023-06-04T00:34:36;23.30;48.60
921;DHT22;447;51.332;6.778;2023-06-04T00:37:01;23.30;48.70
921;DHT22;447;51.332;6.778;2023-06-04T00:39:27;23.20;48.90
921;DHT22;447;51.332;6.778;2023-06-04T00:41:55;23.20;48.70
921;DHT22;447;51.332;6.778;2023-06-04T00:44:21;23.20;48.70
921;DHT22;447;51.332;6.778;2023-06-04T00:46:51;23.20;48.70
921;DHT22;447;51.332;6.778;2023-06-04T00:49:20;23.20;48.70
921;DHT22;447;51.332;6.778;2023-06-04T00:51:48;23.10;48.70
921;DHT22;447;51.332;6.778;2023-06-04T00:54:20;23.10;48.80
921;DHT22;447;51.332;6.778;2023-06-04T00:56:47;23.10;48.80
921;DHT22;447;51.332;6.778;2023-06-04T00:59:14;23.10;48.90
921;DHT22;447;51.332;6.778;2023-06-04T01:01:51;23.10;48.80
921;DHT22;447;51.332;6.778;2023-06-04T01:07:22;23.00;48.80
921;DHT22;447;51.332;6.778;2023-06-04T01:09:53;23.00;48.80
921;DHT22;447;51.332;6.778;2023-06-04T01:12:21;23.00;48.90
921;DHT22;447;51.332;6.778;2023-06-04T01:14:47;23.00;48.90
921;DHT22;447;51.332;6.778;2023-06-04T01:17:25;22.90;48.70
921;DHT22;447;51.332;6.778;2023-06-04T01:25:41;22.80;48.70
921;DHT22;447;51.332;6.778;2023-06-04T01:28:14;22.80;48.80
921;DHT22;447;51.332;6.778;2023-06-04T01:30:45;22.80;48.80
921;DHT22;447;51.332;6.778;2023-06-04T01:33:13;22.80;48.80
921;DHT22;447;51.332;6.778;2023-06-04T01:35:40;22.80;48.80
921;DHT22;447;51.332;6.778;2023-06-04T01:38:06;22.80;48.70
921;DHT22;447;51.332;6.778;2023-06-04T01:40:35;22.70;48.70
921;DHT22;447;51.332;6.778;2023-06-04T01:43:03;22.70;48.70
921;DHT22;447;51.332;6.778;2023-06-04T01:45:34;22.70;48.70
921;DHT22;447;51.332;6.778;2023-06-04T01:48:04;22.70;48.80
921;DHT22;447;51.332;6.778;2023-06-04T01:50:31;22.60;48.70
921;DHT22;447;51.332;6.778;2023-06-04T01:52:58;22.60;48.70
921;DHT22;447;51.332;6.778;2023-06-04T01:55:26;22.60;48.70
921;DHT22;447;51.332;6.778;2023-06-04T01:57:57;22.60;48.70
921;DHT22;447;51.332;6.778;2023-06-04T02:00:27;22.60;48.80
921;DHT22;447;51.332;6.778;2023-06-04T02:02:56;22.60;48.80
921;DHT22;447;51.332;6.778;2023-06-04T02:05:22;22.50;48.70
921;DHT22;447;51.332;6.778;2023-06-04T02:07:48;22.50;48.80
921;DHT22;447;51.332;6.778;2023-06-04T02:10:18;22.50;48.80
921;DHT22;447;51.332;6.778;2023-06-04T02:12:57;22.50;48.90
921;DHT22;447;51.332;6.778;2023-06-04T02:15:25;22.50;49.00
921;DHT22;447;51.332;6.778;2023-06-04T02:18:15;22.40;49.00
921;DHT22;447;51.332;6.778;2023-06-04T02:20:44;22.40;49.00
921;DHT22;447;51.332;6.778;2023-06-04T02:23:11;22.40;49.10
921;DHT22;447;51.332;6.778;2023-06-04T02:25:40;22.40;49.20
921;DHT22;447;51.332;6.778;2023-06-04T02:28:06;22.40;49.20
921;DHT22;447;51.332;6.778;2023-06-04T02:30:35;22.30;49.20
921;DHT22;447;51.332;6.778;2023-06-04T02:33:01;22.30;49.30
921;DHT22;447;51.332;6.778;2023-06-04T02:35:30;22.30;49.30
921;DHT22;447;51.332;6.778;2023-06-04T02:37:57;22.30;49.40
921;DHT22;447;51.332;6.778;2023-06-04T02:40:29;22.30;49.40
921;DHT22;447;51.332;6.778;2023-06-04T02:42:55;22.30;49.50
921;DHT22;447;51.332;6.778;2023-06-04T02:45:22;22.20;49.40
921;DHT22;447;51.332;6.778;2023-06-04T02:47:56;22.20;49.60
921;DHT22;447;51.332;6.778;2023-06-04T02:50:22;22.20;49.60
921;DHT22;447;51.332;6.778;2023-06-04T02:52:51;22.20;49.60
921;DHT22;447;51.332;6.778;2023-06-04T02:55:17;22.20;49.70
921;DHT22;447;51.332;6.778;2023-06-04T02:57:43;22.10;49.70
921;DHT22;447;51.332;6.778;2023-06-04T03:00:14;22.10;49.70
921;DHT22;447;51.332;6.778;2023-06-04T03:02:45;22.10;49.80
921;DHT22;447;51.332;6.778;2023-06-04T03:05:13;22.10;49.90
921;DHT22;447;51.332;6.778;2023-06-04T03:07:43;22.10;49.90
921;DHT22;447;51.332;6.778;2023-06-04T03:10:11;22.10;49.90
921;DHT22;447;51.332;6.778;2023-06-04T03:12:42;22.00;49.90
921;DHT22;447;51.332;6.778;2023-06-04T03:15:09;22.00;50.00
921;DHT22;447;51.332;6.778;2023-06-04T03:17:35;22.00;50.00
921;DHT22;447;51.332;6.778;2023-06-04T03:20:02;22.00;50.10
921;DHT22;447;51.332;6.778;2023-06-04T03:22:30;22.00;50.10
921;DHT22;447;51.332;6.778;2023-06-04T03:24:56;21.90;50.10
921;DHT22;447;51.332;6.778;2023-06-04T03:27:24;22.00;50.20
921;DHT22;447;51.332;6.778;2023-06-04T03:29:50;21.90;50.20
921;DHT22;447;51.332;6.778;2023-06-04T03:32:19;21.90;50.20
921;DHT22;447;51.332;6.778;2023-06-04T03:34:51;21.90;50.20
921;DHT22;447;51.332;6.778;2023-06-04T03:37:17;21.90;50.30
921;DHT22;447;51.332;6.778;2023-06-04T03:39:46;21.90;50.30
921;DHT22;447;51.332;6.778;2023-06-04T03:42:17;21.90;50.40
921;DHT22;447;51.332;6.778;2023-06-04T03:44:46;21.80;50.40
921;DHT22;447;51.332;6.778;2023-06-04T03:47:15;21.80;50.50
921;DHT22;447;51.332;6.778;2023-06-04T03:49:44;21.80;50.50
921;DHT22;447;51.332;6.778;2023-06-04T03:52:13;21.80;50.50
921;DHT22;447;51.332;6.778;2023-06-04T03:54:41;21.80;51.10
921;DHT22;447;51.332;6.778;2023-06-04T03:57:07;21.70;50.50
921;DHT22;447;51.332;6.778;2023-06-04T03:59:33;21.70;50.60
921;DHT22;447;51.332;6.778;2023-06-04T04:01:59;21.70;50.70
921;DHT22;447;51.332;6.778;2023-06-04T04:04:28;21.70;50.70
921;DHT22;447;51.332;6.778;2023-06-04T04:06:54;21.70;50.70
921;DHT22;447;51.332;6.778;2023-06-04T04:09:24;21.70;50.80
921;DHT22;447;51.332;6.778;2023-06-04T04:11:50;21.60;50.70
921;DHT22;447;51.332;6.778;2023-06-04T04:14:20;21.60;50.80
921;DHT22;447;51.332;6.778;2023-06-04T04:16:46;21.60;50.90
921;DHT22;447;51.332;6.778;2023-06-04T04:19:13;21.60;50.90
921;DHT22;447;51.332;6.778;2023-06-04T04:21:42;21.60;51.00
921;DHT22;447;51.332;6.778;2023-06-04T04:24:24;21.50;51.00
921;DHT22;447;51.332;6.778;2023-06-04T04:26:55;21.50;51.00
921;DHT22;447;51.332;6.778;2023-06-04T04:29:24;21.50;51.00
921;DHT22;447;51.332;6.778;2023-06-04T04:31:59;21.50;51.10
921;DHT22;447;51.332;6.778;2023-06-04T04:34:53;21.50;51.20
921;DHT22;447;51.332;6.778;2023-06-04T04:37:24;21.40;51.10
921;DHT22;447;51.332;6.778;2023-06-04T04:39:53;21.40;51.20
921;DHT22;447;51.332;6.778;2023-06-04T04:42:25;21.40;51.20
921;DHT22;447;51.332;6.778;2023-06-04T04:44:52;21.40;51.30
921;DHT22;447;51.332;6.778;2023-06-04T04:47:23;21.40;51.30
921;DHT22;447;51.332;6.778;2023-06-04T04:49:49;21.40;51.40
921;DHT22;447;51.332;6.778;2023-06-04T04:52:18;21.30;51.40
921;DHT22;447;51.332;6.778;2023-06-04T04:54:44;21.30;51.40
921;DHT22;447;51.332;6.778;2023-06-04T04:57:15;21.30;51.40
921;DHT22;447;51.332;6.778;2023-06-04T04:59:45;21.30;51.50
921;DHT22;447;51.332;6.778;2023-06-04T05:02:14;21.30;51.50
921;DHT22;447;51.332;6.778;2023-06-04T05:04:40;21.30;51.60
921;DHT22;447;51.332;6.778;2023-06-04T05:07:07;21.20;51.50
921;DHT22;447;51.332;6.778;2023-06-04T05:09:33;21.20;51.60
921;DHT22;447;51.332;6.778;2023-06-04T05:11:59;21.20;51.60
921;DHT22;447;51.332;6.778;2023-06-04T05:14:28;21.20;51.60
921;DHT22;447;51.332;6.778;2023-06-04T05:16:59;21.20;51.70
921;DHT22;447;51.332;6.778;2023-06-04T05:19:28;21.20;51.70
921;DHT22;447;51.332;6.778;2023-06-04T05:21:54;21.10;51.70
921;DHT22;447;51.332;6.778;2023-06-04T05:24:20;21.10;51.70
921;DHT22;447;51.332;6.778;2023-06-04T05:26:48;21.10;51.70
921;DHT22;447;51.332;6.778;2023-06-04T05:29:19;21.20;51.80
921;DHT22;447;51.332;6.778;2023-06-04T05:31:46;21.10;51.80
921;DHT22;447;51.332;6.778;2023-06-04T05:34:14;21.10;51.80
921;DHT22;447;51.332;6.778;2023-06-04T05:36:43;21.10;51.90
921;DHT22;447;51.332;6.778;2023-06-04T05:39:09;21.10;51.90
921;DHT22;447;51.332;6.778;2023-06-04T05:41:45;21.10;52.00
921;DHT22;447;51.332;6.778;2023-06-04T05:44:12;21.10;51.90
921;DHT22;447;51.332;6.778;2023-06-04T05:46:38;21.00;51.90
921;DHT22;447;51.332;6.778;2023-06-04T05:49:04;21.00;51.90
921;DHT22;447;51.332;6.778;2023-06-04T05:51:32;21.00;51.90
921;DHT22;447;51.332;6.778;2023-06-04T05:54:02;21.00;51.90
921;DHT22;447;51.332;6.778;2023-06-04T05:56:33;21.00;51.90
921;DHT22;447;51.332;6.778;2023-06-04T05:59:03;21.00;51.90
921;DHT22;447;51.332;6.778;2023-06-04T06:01:28;21.00;52.00
921;DHT22;447;51.332;6.778;2023-06-04T06:03:57;21.00;52.00
921;DHT22;447;51.332;6.778;2023-06-04T06:06:25;21.00;52.00
921;DHT22;447;51.332;6.778;2023-06-04T06:08:51;20.90;51.90
921;DHT22;447;51.332;6.778;2023-06-04T06:11:22;21.00;52.00
921;DHT22;447;51.332;6.778;2023-06-04T06:13:49;20.90;51.90
921;DHT22;447;51.332;6.778;2023-06-04T06:16:18;20.90;51.90
921;DHT22;447;51.332;6.778;2023-06-04T06:18:47;20.90;51.90
921;DHT22;447;51.332;6.778;2023-06-04T06:21:13;20.90;51.90
921;DHT22;447;51.332;6.778;2023-06-04T06:23:40;20.90;51.90
921;DHT22;447;51.332;6.778;2023-06-04T06:26:06;20.90;51.90
921;DHT22;447;51.332;6.778;2023-06-04T06:28:38;20.90;52.00
921;DHT22;447;51.332;6.778;2023-06-04T06:31:04;20.90;52.00
921;DHT22;447;51.332;6.778;2023-06-04T06:33:31;20.90;52.10
921;DHT22;447;51.332;6.778;2023-06-04T06:35:57;20.90;52.10
921;DHT22;447;51.332;6.778;2023-06-04T06:38:27;20.90;52.10
921;DHT22;447;51.332;6.778;2023-06-04T06:40:55;20.90;52.10
921;DHT22;447;51.332;6.778;2023-06-04T06:43:21;20.90;52.10
921;DHT22;447;51.332;6.778;2023-06-04T06:45:47;20.90;52.10
921;DHT22;447;51.332;6.778;2023-06-04T06:48:13;20.90;52.10
921;DHT22;447;51.332;6.778;2023-06-04T06:50:39;20.90;52.10
921;DHT22;447;51.332;6.778;2023-06-04T06:53:05;20.90;52.00
921;DHT22;447;51.332;6.778;2023-06-04T06:55:31;20.90;52.00
921;DHT22;447;51.332;6.778;2023-06-04T06:57:58;20.90;51.90
921;DHT22;447;51.332;6.778;2023-06-04T07:00:25;20.90;51.90
921;DHT22;447;51.332;6.778;2023-06-04T07:02:51;20.90;51.90
921;DHT22;447;51.332;6.778;2023-06-04T07:05:17;20.90;51.80
921;DHT22;447;51.332;6.778;2023-06-04T07:07:50;20.90;51.80
921;DHT22;447;51.332;6.778;2023-06-04T07:10:16;20.90;51.80
921;DHT22;447;51.332;6.778;2023-06-04T07:12:44;20.90;51.70
921;DHT22;447;51.332;6.778;2023-06-04T07:15:12;20.90;51.70
921;DHT22;447;51.332;6.778;2023-06-04T07:17:38;20.90;51.70
921;DHT22;447;51.332;6.778;2023-06-04T07:20:10;20.90;51.60
921;DHT22;447;51.332;6.778;2023-06-04T07:22:38;20.90;51.50
921;DHT22;447;51.332;6.778;2023-06-04T07:25:04;20.90;51.50
921;DHT22;447;51.332;6.778;2023-06-04T07:27:33;20.90;51.50
921;DHT22;447;51.332;6.778;2023-06-04T07:30:00;20.90;51.40
921;DHT22;447;51.332;6.778;2023-06-04T07:32:26;20.90;51.40
921;DHT22;447;51.332;6.778;2023-06-04T07:34:52;21.00;51.40
921;DHT22;447;51.332;6.778;2023-06-04T07:37:18;21.00;51.40
921;DHT22;447;51.332;6.778;2023-06-04T07:39:44;21.00;51.40
921;DHT22;447;51.332;6.778;2023-06-04T07:42:13;21.00;51.40
921;DHT22;447;51.332;6.778;2023-06-04T07:44:39;21.00;51.40
921;DHT22;447;51.332;6.778;2023-06-04T07:47:05;21.00;51.40
921;DHT22;447;51.332;6.778;2023-06-04T07:49:35;21.00;51.40
921;DHT22;447;51.332;6.778;2023-06-04T07:52:00;21.10;51.40
921;DHT22;447;51.332;6.778;2023-06-04T07:54:27;21.10;51.40
921;DHT22;447;51.332;6.778;2023-06-04T07:56:53;21.10;51.50
921;DHT22;447;51.332;6.778;2023-06-04T07:59:22;21.10;51.50
921;DHT22;447;51.332;6.778;2023-06-04T08:01:50;21.10;51.60
921;DHT22;447;51.332;6.778;2023-06-04T08:04:20;21.10;51.60
921;DHT22;447;51.332;6.778;2023-06-04T08:06:51;21.10;51.60
921;DHT22;447;51.332;6.778;2023-06-04T08:09:18;21.20;51.70
921;DHT22;447;51.332;6.778;2023-06-04T08:11:44;21.20;51.70
921;DHT22;447;51.332;6.778;2023-06-04T08:14:13;21.20;51.60
921;DHT22;447;51.332;6.778;2023-06-04T08:16:41;21.20;51.70
921;DHT22;447;51.332;6.778;2023-06-04T08:19:26;21.20;51.70
921;DHT22;447;51.332;6.778;2023-06-04T08:21:57;21.20;51.70
921;DHT22;447;51.332;6.778;2023-06-04T08:24:38;21.30;51.80
921;DHT22;447;51.332;6.778;2023-06-04T08:27:24;21.30;51.80
921;DHT22;447;51.332;6.778;2023-06-04T08:30:03;21.30;52.40
921;DHT22;447;51.332;6.778;2023-06-04T08:32:52;21.40;51.90
921;DHT22;447;51.332;6.778;2023-06-04T08:35:20;21.40;52.00
921;DHT22;447;51.332;6.778;2023-06-04T08:37:46;21.40;52.00
921;DHT22;447;51.332;6.778;2023-06-04T08:40:12;21.40;51.90
921;DHT22;447;51.332;6.778;2023-06-04T08:42:41;21.40;51.90
921;DHT22;447;51.332;6.778;2023-06-04T08:45:15;21.50;52.00
921;DHT22;447;51.332;6.778;2023-06-04T08:47:50;21.50;52.00
921;DHT22;447;51.332;6.778;2023-06-04T08:50:22;21.60;52.10
921;DHT22;447;51.332;6.778;2023-06-04T08:52:57;21.60;52.00
921;DHT22;447;51.332;6.778;2023-06-04T08:55:26;21.60;52.00
921;DHT22;447;51.332;6.778;2023-06-04T08:57:52;21.60;52.00
921;DHT22;447;51.332;6.778;2023-06-04T09:00:21;21.70;52.00
921;DHT22;447;51.332;6.778;2023-06-04T09:02:49;21.70;52.10
921;DHT22;447;51.332;6.778;2023-06-04T09:05:23;21.70;52.00
921;DHT22;447;51.332;6.778;2023-06-04T09:07:55;21.80;52.00
921;DHT22;447;51.332;6.778;2023-06-04T09:10:26;21.80;51.90
921;DHT22;447;51.332;6.778;2023-06-04T09:12:56;21.80;51.80
921;DHT22;447;51.332;6.778;2023-06-04T09:15:25;21.80;51.80
921;DHT22;447;51.332;6.778;2023-06-04T09:17:53;21.90;51.80
921;DHT22;447;51.332;6.778;2023-06-04T09:20:22;21.90;51.70
921;DHT22;447;51.332;6.778;2023-06-04T09:22:50;21.90;51.60
921;DHT22;447;51.332;6.778;2023-06-04T09:25:23;21.90;51.50
921;DHT22;447;51.332;6.778;2023-06-04T09:27:58;22.00;51.50
921;DHT22;447;51.332;6.778;2023-06-04T09:30:32;22.00;51.30
921;DHT22;447;51.332;6.778;2023-06-04T09:33:08;22.00;51.30
921;DHT22;447;51.332;6.778;2023-06-04T09:35:40;22.10;51.30
921;DHT22;447;51.332;6.778;2023-06-04T09:38:06;22.10;51.20
921;DHT22;447;51.332;6.778;2023-06-04T09:40:38;22.10;51.10
921;DHT22;447;51.332;6.778;2023-06-04T09:43:04;22.20;50.90
921;DHT22;447;51.332;6.778;2023-06-04T09:45:31;22.20;50.90
921;DHT22;447;51.332;6.778;2023-06-04T09:48:01;22.20;50.90
921;DHT22;447;51.332;6.778;2023-06-04T09:52:56;22.30;50.80
921;DHT22;447;51.332;6.778;2023-06-04T09:55:22;22.30;50.70
921;DHT22;447;51.332;6.778;2023-06-04T09:57:52;22.40;50.70
921;DHT22;447;51.332;6.778;2023-06-04T10:00:23;22.40;50.60
921;DHT22;447;51.332;6.778;2023-06-04T10:02:53;22.40;50.50
921;DHT22;447;51.332;6.778;2023-06-04T10:05:21;22.50;50.50
921;DHT22;447;51.332;6.778;2023-06-04T10:07:51;22.50;50.50
921;DHT22;447;51.332;6.778;2023-06-04T10:10:23;22.60;50.50
921;DHT22;447;51.332;6.778;2023-06-04T10:13:00;22.60;50.50
921;DHT22;447;51.332;6.778;2023-06-04T10:15:35;22.60;50.40
921;DHT22;447;51.332;6.778;2023-06-04T10:18:02;22.70;50.50
921;DHT22;447;51.332;6.778;2023-06-04T10:20:31;22.70;50.40
921;DHT22;447;51.332;6.778;2023-06-04T10:23:03;22.80;50.50
921;DHT22;447;51.332;6.778;2023-06-04T10:25:33;22.80;50.40
921;DHT22;447;51.332;6.778;2023-06-04T10:28:00;22.80;50.40
921;DHT22;447;51.332;6.778;2023-06-04T10:30:33;22.90;50.30
921;DHT22;447;51.332;6.778;2023-06-04T10:33:06;23.00;50.30
921;DHT22;447;51.332;6.778;2023-06-04T10:35:36;23.00;50.30
921;DHT22;447;51.332;6.778;2023-06-04T10:40:39;23.00;50.10
921;DHT22;447;51.332;6.778;2023-06-04T10:43:13;23.10;50.20
921;DHT22;447;51.332;6.778;2023-06-04T10:45:44;23.20;50.20
921;DHT22;447;51.332;6.778;2023-06-04T10:48:12;23.20;50.20
921;DHT22;447;51.332;6.778;2023-06-04T10:50:52;23.20;50.10
921;DHT22;447;51.332;6.778;2023-06-04T10:53:23;23.20;50.00
921;DHT22;447;51.332;6.778;2023-06-04T10:55:49;23.30;49.90
921;DHT22;447;51.332;6.778;2023-06-04T10:58:18;23.30;50.50
921;DHT22;447;51.332;6.778;2023-06-04T11:00:46;23.30;49.80
921;DHT22;447;51.332;6.778;2023-06-04T11:03:15;23.40;49.80
921;DHT22;447;51.332;6.778;2023-06-04T11:05:47;23.40;49.80
921;DHT22;447;51.332;6.778;2023-06-04T11:08:29;23.40;49.80
921;DHT22;447;51.332;6.778;2023-06-04T11:10:57;23.50;49.70
921;DHT22;447;51.332;6.778;2023-06-04T11:13:27;23.50;49.50
921;DHT22;447;51.332;6.778;2023-06-04T11:15:52;23.60;49.60
921;DHT22;447;51.332;6.778;2023-06-04T11:18:20;23.60;49.40
921;DHT22;447;51.332;6.778;2023-06-04T11:21:00;23.70;49.40
921;DHT22;447;51.332;6.778;2023-06-04T11:23:27;23.70;49.30
921;DHT22;447;51.332;6.778;2023-06-04T11:25:56;23.70;48.60
921;DHT22;447;51.332;6.778;2023-06-04T11:28:24;23.80;48.40
921;DHT22;447;51.332;6.778;2023-06-04T11:31:02;23.80;48.10
921;DHT22;447;51.332;6.778;2023-06-04T11:33:44;23.90;47.90
921;DHT22;447;51.332;6.778;2023-06-04T11:36:11;23.90;47.80
921;DHT22;447;51.332;6.778;2023-06-04T11:38:59;23.90;47.80
921;DHT22;447;51.332;6.778;2023-06-04T11:41:33;24.00;48.10
921;DHT22;447;51.332;6.778;2023-06-04T11:44:05;24.00;48.10
921;DHT22;447;51.332;6.778;2023-06-04T11:46:44;24.00;48.10
921;DHT22;447;51.332;6.778;2023-06-04T11:49:19;24.10;48.20
921;DHT22;447;51.332;6.778;2023-06-04T11:51:51;24.10;48.20
921;DHT22;447;51.332;6.778;2023-06-04T11:54:23;24.10;48.20
921;DHT22;447;51.332;6.778;2023-06-04T11:56:53;24.10;48.10
921;DHT22;447;51.332;6.778;2023-06-04T11:59:19;24.20;48.20
921;DHT22;447;51.332;6.778;2023-06-04T12:01:50;24.20;48.70
921;DHT22;447;51.332;6.778;2023-06-04T12:04:19;24.20;48.10
921;DHT22;447;51.332;6.778;2023-06-04T12:06:59;24.20;48.00
921;DHT22;447;51.332;6.778;2023-06-04T12:09:33;24.30;48.00
921;DHT22;447;51.332;6.778;2023-06-04T12:12:10;24.30;47.90
921;DHT22;447;51.332;6.778;2023-06-04T12:14:43;24.40;48.00
921;DHT22;447;51.332;6.778;2023-06-04T12:17:13;24.40;48.10
921;DHT22;447;51.332;6.778;2023-06-04T12:19:49;24.40;48.00
921;DHT22;447;51.332;6.778;2023-06-04T12:22:18;24.40;47.90
921;DHT22;447;51.332;6.778;2023-06-04T12:24:56;24.50;47.90
921;DHT22;447;51.332;6.778;2023-06-04T12:27:25;24.50;47.80
921;DHT22;447;51.332;6.778;2023-06-04T12:29:55;24.50;47.80
921;DHT22;447;51.332;6.778;2023-06-04T12:32:25;24.60;48.10
921;DHT22;447;51.332;6.778;2023-06-04T12:34:53;24.60;47.90
921;DHT22;447;51.332;6.778;2023-06-04T12:37:23;24.70;48.00
921;DHT22;447;51.332;6.778;2023-06-04T12:39:51;24.70;48.10
921;DHT22;447;51.332;6.778;2023-06-04T12:42:20;24.70;47.80
921;DHT22;447;51.332;6.778;2023-06-04T12:44:46;24.70;47.80
921;DHT22;447;51.332;6.778;2023-06-04T12:47:14;24.80;48.00
921;DHT22;447;51.332;6.778;2023-06-04T12:49:42;24.80;47.80
921;DHT22;447;51.332;6.778;2023-06-04T12:52:08;24.80;47.90
921;DHT22;447;51.332;6.778;2023-06-04T12:54:36;24.90;47.70
921;DHT22;447;51.332;6.778;2023-06-04T12:57:05;24.90;47.20
921;DHT22;447;51.332;6.778;2023-06-04T12:59:33;24.90;47.30
921;DHT22;447;51.332;6.778;2023-06-04T13:02:04;25.00;47.40
921;DHT22;447;51.332;6.778;2023-06-04T13:04:34;25.00;47.20
921;DHT22;447;51.332;6.778;2023-06-04T13:07:00;25.00;47.70
921;DHT22;447;51.332;6.778;2023-06-04T13:09:28;25.10;47.20
921;DHT22;447;51.332;6.778;2023-06-04T13:11:58;25.10;47.20
921;DHT22;447;51.332;6.778;2023-06-04T13:14:24;25.10;47.00
921;DHT22;447;51.332;6.778;2023-06-04T13:16:50;25.10;47.10
921;DHT22;447;51.332;6.778;2023-06-04T13:19:19;25.20;47.30
921;DHT22;447;51.332;6.778;2023-06-04T13:21:48;25.20;47.00
921;DHT22;447;51.332;6.778;2023-06-04T13:24:16;25.20;47.00
921;DHT22;447;51.332;6.778;2023-06-04T13:26:49;25.30;47.20
921;DHT22;447;51.332;6.778;2023-06-04T13:29:15;25.30;46.90
921;DHT22;447;51.332;6.778;2023-06-04T13:31:42;25.30;47.00
921;DHT22;447;51.332;6.778;2023-06-04T13:34:08;25.40;47.00
921;DHT22;447;51.332;6.778;2023-06-04T13:36:34;25.40;46.70
921;DHT22;447;51.332;6.778;2023-06-04T13:39:01;25.40;46.50
921;DHT22;447;51.332;6.778;2023-06-04T13:41:29;25.50;46.70
921;DHT22;447;51.332;6.778;2023-06-04T13:43:58;25.50;46.60
921;DHT22;447;51.332;6.778;2023-06-04T13:46:26;25.60;46.80
921;DHT22;447;51.332;6.778;2023-06-04T13:48:54;25.60;46.60
921;DHT22;447;51.332;6.778;2023-06-04T13:51:25;25.60;46.70
921;DHT22;447;51.332;6.778;2023-06-04T13:53:51;25.70;46.60
921;DHT22;447;51.332;6.778;2023-06-04T13:56:20;25.70;46.40
921;DHT22;447;51.332;6.778;2023-06-04T13:58:48;25.70;46.20
921;DHT22;447;51.332;6.778;2023-06-04T14:01:14;25.70;46.30
921;DHT22;447;51.332;6.778;2023-06-04T14:03:44;25.80;46.40
921;DHT22;447;51.332;6.778;2023-06-04T14:06:10;25.80;46.30
921;DHT22;447;51.332;6.778;2023-06-04T14:08:36;25.80;46.10
921;DHT22;447;51.332;6.778;2023-06-04T14:11:04;25.90;46.30
921;DHT22;447;51.332;6.778;2023-06-04T14:13:31;25.90;46.30
921;DHT22;447;51.332;6.778;2023-06-04T14:16:02;25.90;46.10
921;DHT22;447;51.332;6.778;2023-06-04T14:18:28;26.00;46.00
921;DHT22;447;51.332;6.778;2023-06-04T14:20:56;26.00;46.10
921;DHT22;447;51.332;6.778;2023-06-04T14:23:27;26.10;46.10
921;DHT22;447;51.332;6.778;2023-06-04T14:25:53;26.10;45.90
921;DHT22;447;51.332;6.778;2023-06-04T14:28:18;26.10;45.50
921;DHT22;447;51.332;6.778;2023-06-04T14:30:47;26.10;45.70
921;DHT22;447;51.332;6.778;2023-06-04T14:33:13;26.20;45.40
921;DHT22;447;51.332;6.778;2023-06-04T14:35:44;26.20;45.40
921;DHT22;447;51.332;6.778;2023-06-04T14:38:15;26.20;45.50
921;DHT22;447;51.332;6.778;2023-06-04T14:40:41;26.30;45.70
921;DHT22;447;51.332;6.778;2023-06-04T14:43:11;26.30;45.80
921;DHT22;447;51.332;6.778;2023-06-04T14:45:42;26.40;46.00
921;DHT22;447;51.332;6.778;2023-06-04T14:48:08;26.40;45.70
921;DHT22;447;51.332;6.778;2023-06-04T14:50:34;26.40;45.80
921;DHT22;447;51.332;6.778;2023-06-04T14:53:02;26.40;45.70
921;DHT22;447;51.332;6.778;2023-06-04T14:55:33;26.50;45.60
921;DHT22;447;51.332;6.778;2023-06-04T14:58:00;26.50;45.70
921;DHT22;447;51.332;6.778;2023-06-04T15:00:29;26.60;45.40
921;DHT22;447;51.332;6.778;2023-06-04T15:02:55;26.60;45.10
921;DHT22;447;51.332;6.778;2023-06-04T15:05:21;26.60;45.00
921;DHT22;447;51.332;6.778;2023-06-04T15:07:50;26.70;45.10
921;DHT22;447;51.332;6.778;2023-06-04T15:10:16;26.70;45.40
921;DHT22;447;51.332;6.778;2023-06-04T15:12:42;26.80;45.50
921;DHT22;447;51.332;6.778;2023-06-04T15:15:14;26.80;45.40
921;DHT22;447;51.332;6.778;2023-06-04T15:17:42;26.80;45.50
921;DHT22;447;51.332;6.778;2023-06-04T15:20:08;26.90;45.30
921;DHT22;447;51.332;6.778;2023-06-04T15:22:34;26.90;45.30
921;DHT22;447;51.332;6.778;2023-06-04T15:25:05;26.90;45.10
921;DHT22;447;51.332;6.778;2023-06-04T15:27:35;27.00;45.30
921;DHT22;447;51.332;6.778;2023-06-04T15:30:04;27.00;45.40
921;DHT22;447;51.332;6.778;2023-06-04T15:32:30;27.10;45.30
921;DHT22;447;51.332;6.778;2023-06-04T15:35:01;27.10;44.90
921;DHT22;447;51.332;6.778;2023-06-04T15:37:28;27.10;44.80
921;DHT22;447;51.332;6.778;2023-06-04T15:39:56;27.20;45.00
921;DHT22;447;51.332;6.778;2023-06-04T15:42:26;27.20;45.10
921;DHT22;447;51.332;6.778;2023-06-04T15:44:52;27.20;45.20
921;DHT22;447;51.332;6.778;2023-06-04T15:47:22;27.30;45.00
921;DHT22;447;51.332;6.778;2023-06-04T15:49:50;27.30;44.70
921;DHT22;447;51.332;6.778;2023-06-04T15:52:16;27.40;44.50
921;DHT22;447;51.332;6.778;2023-06-04T15:54:44;27.40;44.20
921;DHT22;447;51.332;6.778;2023-06-04T15:57:10;27.50;44.30
921;DHT22;447;51.332;6.778;2023-06-04T15:59:39;27.50;44.30
921;DHT22;447;51.332;6.778;2023-06-04T16:02:05;27.60;44.20
921;DHT22;447;51.332;6.778;2023-06-04T16:04:34;27.60;44.10
921;DHT22;447;51.332;6.778;2023-06-04T16:07:00;27.60;43.90
921;DHT22;447;51.332;6.778;2023-06-04T16:09:31;27.70;44.10
921;DHT22;447;51.332;6.778;2023-06-04T16:12:01;27.70;44.20
921;DHT22;447;51.332;6.778;2023-06-04T16:14:35;27.80;44.00
921;DHT22;447;51.332;6.778;2023-06-04T16:17:03;27.80;43.70
921;DHT22;447;51.332;6.778;2023-06-04T16:19:29;27.90;44.20
921;DHT22;447;51.332;6.778;2023-06-04T16:21:58;27.90;44.30
921;DHT22;447;51.332;6.778;2023-06-04T16:24:24;28.00;44.30
921;DHT22;447;51.332;6.778;2023-06-04T16:26:52;28.00;43.50
921;DHT22;447;51.332;6.778;2023-06-04T16:29:21;28.10;43.60
921;DHT22;447;51.332;6.778;2023-06-04T16:31:46;28.10;43.50
921;DHT22;447;51.332;6.778;2023-06-04T16:34:12;28.20;44.00
921;DHT22;447;51.332;6.778;2023-06-04T16:36:38;28.20;43.50
921;DHT22;447;51.332;6.778;2023-06-04T16:39:04;28.20;43.20
921;DHT22;447;51.332;6.778;2023-06-04T16:41:31;28.30;43.80
921;DHT22;447;51.332;6.778;2023-06-04T16:43:59;28.30;43.90
921;DHT22;447;51.332;6.778;2023-06-04T16:46:25;28.20;40.60
921;DHT22;447;51.332;6.778;2023-06-04T16:48:58;28.20;38.60
921;DHT22;447;51.332;6.778;2023-06-04T16:51:24;28.10;38.90
921;DHT22;447;51.332;6.778;2023-06-04T16:53:53;28.00;39.40
921;DHT22;447;51.332;6.778;2023-06-04T16:56:19;28.00;40.40
921;DHT22;447;51.332;6.778;2023-06-04T16:58:47;28.00;40.60